createdAt,value
2018-02-22T00:00:54.631Z,-0.14
2018-02-22T00:01:54.535Z,-0.10
2018-02-22T00:03:47.843Z,-0.10
2018-02-22T00:04:47.688Z,-0.16
2018-02-22T00:06:40.948Z,-0.13
2018-02-22T00:07:40.850Z,-0.17
2018-02-22T00:09:33.626Z,-0.16
2018-02-22T00:10:33.500Z,-0.20
2018-02-22T00:12:26.761Z,-0.14
2018-02-22T00:13:26.656Z,-0.10
2018-02-22T00:15:19.437Z,-0.14
2018-02-22T00:16:19.315Z,-0.20
2018-02-22T00:18:12.048Z,-0.32
2018-02-22T00:19:11.962Z,-0.34
2018-02-22T00:21:05.332Z,-0.47
2018-02-22T00:22:05.206Z,-0.46
2018-02-22T00:23:58.475Z,-0.55
2018-02-22T00:24:58.368Z,-0.67
2018-02-22T00:26:51.171Z,-0.81
2018-02-22T00:27:51.022Z,-0.76
2018-02-22T00:29:43.763Z,-0.78
2018-02-22T00:30:43.663Z,-0.84
2018-02-22T00:32:36.559Z,-0.79
2018-02-22T00:33:36.405Z,-0.86
2018-02-22T00:35:29.368Z,-0.79
2018-02-22T00:36:29.265Z,-0.82
2018-02-22T00:38:22.130Z,-0.89
2018-02-22T00:39:22.008Z,-0.92
2018-02-22T00:41:14.877Z,-0.94
2018-02-22T00:42:14.760Z,-0.95
2018-02-22T00:44:07.638Z,-1.00
2018-02-22T00:45:07.507Z,-1.08
2018-02-22T00:47:00.359Z,-1.05
2018-02-22T00:48:00.257Z,-1.10
2018-02-22T00:49:53.142Z,-1.03
2018-02-22T00:50:53.009Z,-1.11
2018-02-22T00:52:46.682Z,-1.13
2018-02-22T00:53:46.606Z,-1.16
2018-02-22T00:55:39.442Z,-1.19
2018-02-22T00:56:39.329Z,-1.23
2018-02-22T00:58:37.094Z,-1.18
2018-02-22T00:59:37.016Z,-1.23
2018-02-22T01:01:34.795Z,-1.29
2018-02-22T01:02:34.661Z,-1.37
2018-02-22T01:04:27.506Z,-1.40
2018-02-22T01:05:27.420Z,-1.37
2018-02-22T01:07:31.338Z,-1.46
2018-02-22T01:08:31.224Z,-1.47
2018-02-22T01:10:24.475Z,-1.46
2018-02-22T01:11:24.387Z,-1.51
2018-02-22T01:13:35.879Z,-1.52
2018-02-22T01:14:35.774Z,-1.61
2018-02-22T01:16:28.555Z,-1.62
2018-02-22T01:17:28.456Z,-1.58
2018-02-22T01:19:21.241Z,-1.62
2018-02-22T01:20:21.077Z,-1.64
2018-02-22T01:22:13.820Z,-1.70
2018-02-22T01:23:13.779Z,-1.67
2018-02-22T01:25:07.491Z,-1.69
2018-02-22T01:26:07.382Z,-1.69
2018-02-22T01:28:00.393Z,-1.72
2018-02-22T01:29:00.044Z,-1.78
2018-02-22T01:30:53.015Z,-1.75
2018-02-22T01:31:52.880Z,-1.79
2018-02-22T01:33:45.722Z,-1.75
2018-02-22T01:34:45.521Z,-1.79
2018-02-22T01:36:38.388Z,-1.85
2018-02-22T01:37:38.227Z,-1.86
2018-02-22T01:39:30.936Z,-1.80
2018-02-22T01:40:30.819Z,-1.88
2018-02-22T01:42:23.597Z,-2.03
2018-02-22T01:43:23.461Z,-1.96
2018-02-22T01:45:16.227Z,-2.03
2018-02-22T01:46:16.104Z,-2.04
2018-02-22T01:48:09.015Z,-2.12
2018-02-22T01:49:08.858Z,-2.27
2018-02-22T01:51:01.612Z,-2.22
2018-02-22T01:52:01.513Z,-2.21
2018-02-22T01:53:54.287Z,-2.24
2018-02-22T01:54:54.162Z,-2.33
2018-02-22T01:56:46.909Z,-2.37
2018-02-22T01:57:46.803Z,-2.45
2018-02-22T01:59:39.568Z,-2.37
2018-02-22T02:00:39.443Z,-2.48
2018-02-22T02:02:32.199Z,-2.41
2018-02-22T02:03:32.106Z,-2.48
2018-02-22T02:05:25.230Z,-2.49
2018-02-22T02:06:24.740Z,-2.51
2018-02-22T02:08:17.495Z,-2.52
2018-02-22T02:09:17.391Z,-2.63
2018-02-22T02:11:10.170Z,-2.61
2018-02-22T02:12:10.043Z,-2.70
2018-02-22T02:14:02.795Z,-2.70
2018-02-22T02:15:02.694Z,-2.69
2018-02-22T02:16:55.462Z,-2.72
2018-02-22T02:17:55.334Z,-2.79
2018-02-22T02:19:48.083Z,-2.79
2018-02-22T02:20:47.994Z,-2.87
2018-02-22T02:22:41.525Z,-2.87
2018-02-22T02:23:41.137Z,-3.06
2018-02-22T02:25:33.896Z,-2.97
2018-02-22T02:26:33.796Z,-2.95
2018-02-22T02:28:26.889Z,-3.06
2018-02-22T02:29:26.435Z,-3.10
2018-02-22T02:31:19.191Z,-3.09
2018-02-22T02:32:19.090Z,-3.12
2018-02-22T02:34:11.842Z,-3.18
2018-02-22T02:35:11.724Z,-3.20
2018-02-22T02:37:04.481Z,-3.16
2018-02-22T02:38:04.386Z,-3.21
2018-02-22T02:39:57.151Z,-3.21
2018-02-22T02:40:57.033Z,-3.24
2018-02-22T02:42:49.778Z,-3.27
2018-02-22T02:43:49.674Z,-3.31
2018-02-22T02:45:42.426Z,-3.30
2018-02-22T02:46:42.313Z,-3.33
2018-02-22T02:48:35.083Z,-3.34
2018-02-22T02:49:34.957Z,-3.36
2018-02-22T02:51:27.744Z,-3.38
2018-02-22T02:52:27.608Z,-3.36
2018-02-22T02:54:20.356Z,-3.36
2018-02-22T02:55:20.254Z,-3.39
2018-02-22T02:57:13.528Z,-3.39
2018-02-22T02:58:13.441Z,-3.47
2018-02-22T03:00:06.166Z,-3.47
2018-02-22T03:01:06.064Z,-3.47
2018-02-22T03:02:59.093Z,-3.31
2018-02-22T03:03:58.723Z,-3.42
2018-02-22T03:05:51.461Z,-3.21
2018-02-22T03:06:51.371Z,-3.16
2018-02-22T03:08:44.124Z,-3.26
2018-02-22T03:09:44.012Z,-3.33
2018-02-22T03:11:36.770Z,-3.31
2018-02-22T03:12:36.654Z,-3.33
2018-02-22T03:14:29.460Z,-3.36
2018-02-22T03:15:29.297Z,-3.38
2018-02-22T03:17:22.068Z,-3.31
2018-02-22T03:18:21.942Z,-3.27
2018-02-22T03:20:14.719Z,-3.38
2018-02-22T03:21:14.598Z,-3.49
2018-02-22T03:23:07.349Z,-3.36
2018-02-22T03:24:07.283Z,-3.31
2018-02-22T03:26:00.040Z,-3.36
2018-02-22T03:26:59.893Z,-3.23
2018-02-22T03:28:52.637Z,-3.24
2018-02-22T03:29:52.535Z,-3.24
2018-02-22T03:31:45.821Z,-3.21
2018-02-22T03:32:45.693Z,-3.29
2018-02-22T03:34:38.456Z,-3.21
2018-02-22T03:35:38.353Z,-3.18
2018-02-22T03:37:31.454Z,-3.10
2018-02-22T03:38:30.999Z,-3.10
2018-02-22T03:40:23.849Z,-2.98
2018-02-22T03:41:23.687Z,-2.92
2018-02-22T03:43:16.669Z,-2.90
2018-02-22T03:44:16.285Z,-2.92
2018-02-22T03:46:09.543Z,-2.82
2018-02-22T03:47:09.498Z,-2.82
2018-02-22T03:49:02.207Z,-2.74
2018-02-22T03:50:02.106Z,-2.73
2018-02-22T03:51:54.838Z,-2.63
2018-02-22T03:52:54.744Z,-2.58
2018-02-22T03:54:47.517Z,-2.51
2018-02-22T03:55:47.400Z,-2.45
2018-02-22T03:57:40.143Z,-2.37
2018-02-22T03:58:40.051Z,-2.29
2018-02-22T04:00:32.811Z,-2.21
2018-02-22T04:01:32.681Z,-2.15
2018-02-22T04:03:25.424Z,-2.14
2018-02-22T04:04:25.331Z,-2.06
2018-02-22T04:06:18.086Z,-2.11
2018-02-22T04:07:17.990Z,-2.00
2018-02-22T04:09:10.736Z,-2.03
2018-02-22T04:10:10.663Z,-2.03
2018-02-22T04:12:03.643Z,-2.03
2018-02-22T04:13:03.271Z,-2.04
2018-02-22T04:14:56.029Z,-2.03
2018-02-22T04:15:55.917Z,-1.91
2018-02-22T04:17:48.691Z,-1.91
2018-02-22T04:18:48.563Z,-2.06
2018-02-22T04:20:41.313Z,-2.00
2018-02-22T04:21:41.204Z,-1.96
2018-02-22T04:23:34.004Z,-1.97
2018-02-22T04:24:33.863Z,-1.90
2018-02-22T04:26:26.623Z,-1.83
2018-02-22T04:27:26.553Z,-1.90
2018-02-22T04:29:19.302Z,-1.76
2018-02-22T04:30:19.165Z,-1.82
2018-02-22T04:32:11.940Z,-1.76
2018-02-22T04:33:11.801Z,-1.76
2018-02-22T04:35:04.891Z,-1.65
2018-02-22T04:36:04.481Z,-1.67
2018-02-22T04:37:57.204Z,-1.62
2018-02-22T04:38:57.094Z,-1.64
2018-02-22T04:40:49.882Z,-1.57
2018-02-22T04:41:49.743Z,-1.65
2018-02-22T04:43:42.482Z,-1.75
2018-02-22T04:44:42.389Z,-1.72
2018-02-22T04:46:35.156Z,-1.62
2018-02-22T04:47:35.038Z,-1.64
2018-02-22T04:49:27.795Z,-1.59
2018-02-22T04:50:27.706Z,-1.64
2018-02-22T04:52:20.460Z,-1.57
2018-02-22T04:53:20.325Z,-1.54
2018-02-22T04:55:13.080Z,-1.47
2018-02-22T04:56:12.972Z,-1.47
2018-02-22T04:58:06.248Z,-1.51
2018-02-22T04:59:06.135Z,-1.41
2018-02-22T05:00:59.494Z,-1.44
2018-02-22T05:01:59.393Z,-1.49
2018-02-22T05:03:52.167Z,-1.41
2018-02-22T05:04:52.049Z,-1.40
2018-02-22T05:06:44.796Z,-1.37
2018-02-22T05:07:44.684Z,-1.49
2018-02-22T05:09:37.770Z,-1.49
2018-02-22T05:10:37.339Z,-1.51
2018-02-22T05:12:30.106Z,-1.47
2018-02-22T05:13:29.992Z,-1.49
2018-02-22T05:15:22.752Z,-1.46
2018-02-22T05:16:22.640Z,-1.46
2018-02-22T05:18:15.389Z,-1.39
2018-02-22T05:19:15.273Z,-1.43
2018-02-22T05:21:08.646Z,-1.33
2018-02-22T05:22:07.930Z,-1.34
2018-02-22T05:24:00.892Z,-1.40
2018-02-22T05:25:00.773Z,-1.37
2018-02-22T05:26:53.954Z,-1.37
2018-02-22T05:27:53.625Z,-1.40
2018-02-22T05:29:46.380Z,-1.33
2018-02-22T05:30:46.282Z,-1.26
2018-02-22T05:32:39.041Z,-1.33
2018-02-22T05:33:38.935Z,-1.37
2018-02-22T05:35:31.788Z,-1.29
2018-02-22T05:36:31.681Z,-1.33
2018-02-22T05:38:24.959Z,-1.37
2018-02-22T05:39:24.839Z,-1.41
2018-02-22T05:41:17.577Z,-1.39
2018-02-22T05:42:17.482Z,-1.31
2018-02-22T05:44:10.353Z,-1.55
2018-02-22T05:45:10.125Z,-1.61
2018-02-22T05:47:02.876Z,-1.73
2018-02-22T05:48:02.788Z,-1.62
2018-02-22T05:49:55.531Z,-1.65
2018-02-22T05:50:55.421Z,-1.72
2018-02-22T05:52:48.167Z,-1.67
2018-02-22T05:53:48.070Z,-1.72
2018-02-22T05:55:40.847Z,-1.67
2018-02-22T05:56:40.721Z,-1.65
2018-02-22T05:58:33.468Z,-1.67
2018-02-22T05:59:33.358Z,-1.73
2018-02-22T06:01:26.391Z,-1.70
2018-02-22T06:02:26.011Z,-1.70
2018-02-22T06:04:18.781Z,-1.67
2018-02-22T06:05:18.656Z,-1.69
2018-02-22T06:07:11.417Z,-1.72
2018-02-22T06:08:11.309Z,-1.70
2018-02-22T06:10:04.050Z,-1.85
2018-02-22T06:11:03.953Z,-1.80
2018-02-22T06:12:56.726Z,-1.78
2018-02-22T06:13:56.593Z,-1.85
2018-02-22T06:15:49.359Z,-1.73
2018-02-22T06:16:49.256Z,-1.83
2018-02-22T06:18:42.008Z,-1.78
2018-02-22T06:19:41.925Z,-1.79
2018-02-22T06:21:34.637Z,-1.79
2018-02-22T06:22:34.550Z,-1.80
2018-02-22T06:24:27.326Z,-1.82
2018-02-22T06:25:27.193Z,-1.76
2018-02-22T06:27:20.051Z,-1.82
2018-02-22T06:28:19.830Z,-1.79
2018-02-22T06:30:12.693Z,-1.83
2018-02-22T06:31:12.489Z,-1.83
2018-02-22T06:33:05.296Z,-1.90
2018-02-22T06:34:05.147Z,-1.82
2018-02-22T06:35:57.903Z,-1.80
2018-02-22T06:36:57.768Z,-1.85
2018-02-22T06:38:50.542Z,-1.91
2018-02-22T06:39:50.418Z,-1.82
2018-02-22T06:41:43.275Z,-1.85
2018-02-22T06:42:43.170Z,-1.88
2018-02-22T06:44:35.918Z,-1.90
2018-02-22T06:45:35.813Z,-1.85
2018-02-22T06:47:28.846Z,-1.73
2018-02-22T06:48:28.459Z,-1.76
2018-02-22T06:50:21.214Z,-1.78
2018-02-22T06:51:21.107Z,-1.73
2018-02-22T06:53:14.407Z,-1.79
2018-02-22T06:54:14.267Z,-1.85
2018-02-22T06:56:07.538Z,-1.69
2018-02-22T06:57:07.434Z,-1.76
2018-02-22T06:59:00.212Z,-1.75
2018-02-22T07:00:00.079Z,-1.76
2018-02-22T07:01:52.824Z,-1.62
2018-02-22T07:02:52.737Z,-1.67
2018-02-22T07:04:45.518Z,-1.65
2018-02-22T07:05:45.368Z,-1.64
2018-02-22T07:07:38.631Z,-1.69
2018-02-22T07:08:38.539Z,-1.70
2018-02-22T07:10:31.301Z,-1.73
2018-02-22T07:11:31.171Z,-1.73
2018-02-22T07:13:23.952Z,-1.70
2018-02-22T07:14:23.826Z,-1.67
2018-02-22T07:16:16.598Z,-1.70
2018-02-22T07:17:16.467Z,-1.70
2018-02-22T07:19:09.226Z,-1.76
2018-02-22T07:20:09.120Z,-1.65
2018-02-22T07:22:01.883Z,-1.64
2018-02-22T07:23:01.766Z,-1.69
2018-02-22T07:24:54.514Z,-1.75
2018-02-22T07:25:54.421Z,-1.70
2018-02-22T07:27:47.285Z,-1.70
2018-02-22T07:28:47.073Z,-1.64
2018-02-22T07:30:39.806Z,-1.69
2018-02-22T07:31:39.713Z,-1.70
2018-02-22T07:33:32.502Z,-1.65
2018-02-22T07:34:32.372Z,-1.70
2018-02-22T07:36:25.098Z,-1.67
2018-02-22T07:37:25.005Z,-1.52
2018-02-22T07:39:17.782Z,-1.61
2018-02-22T07:40:17.656Z,-1.55
2018-02-22T07:42:10.398Z,-1.62
2018-02-22T07:43:10.357Z,-1.62
2018-02-22T07:45:03.070Z,-1.59
2018-02-22T07:46:02.953Z,-1.51
2018-02-22T07:47:55.707Z,-1.52
2018-02-22T07:48:55.590Z,-1.54
2018-02-22T07:50:49.971Z,-1.51
2018-02-22T07:51:49.778Z,-1.49
2018-02-22T07:53:42.538Z,-1.51
2018-02-22T07:54:42.414Z,-1.41
2018-02-22T07:56:35.183Z,-1.40
2018-02-22T07:57:35.670Z,-1.37
2018-02-22T07:59:27.837Z,-1.43
2018-02-22T08:00:27.712Z,-1.37
2018-02-22T08:02:20.477Z,-1.37
2018-02-22T08:03:20.361Z,-1.41
2018-02-22T08:05:13.112Z,-1.40
2018-02-22T08:06:13.020Z,-1.28
2018-02-22T08:08:05.803Z,-1.34
2018-02-22T08:09:05.662Z,-1.26
2018-02-22T08:10:58.511Z,-1.22
2018-02-22T08:11:58.396Z,-1.23
2018-02-22T08:13:51.391Z,-1.16
2018-02-22T08:14:51.275Z,-1.11
2018-02-22T08:16:44.108Z,-1.05
2018-02-22T08:17:44.012Z,-0.94
2018-02-22T08:19:36.901Z,-0.94
2018-02-22T08:20:36.765Z,-0.95
2018-02-22T08:22:29.611Z,-0.84
2018-02-22T08:23:29.497Z,-0.86
2018-02-22T08:25:22.372Z,-0.78
2018-02-22T08:26:22.245Z,-0.73
2018-02-22T08:28:15.140Z,-0.78
2018-02-22T08:29:14.995Z,-0.82
2018-02-22T08:31:08.787Z,-0.71
2018-02-22T08:32:08.680Z,-0.82
2018-02-22T08:34:01.529Z,-0.84
2018-02-22T08:35:01.417Z,-0.78
2018-02-22T08:36:54.311Z,-0.85
2018-02-22T08:37:54.174Z,-0.81
2018-02-22T08:39:47.021Z,-0.75
2018-02-22T08:40:46.937Z,-0.76
2018-02-22T08:42:39.916Z,-0.68
2018-02-22T08:43:39.674Z,-0.79
2018-02-22T08:45:32.540Z,-0.75
2018-02-22T08:46:32.444Z,-0.60
2018-02-22T08:48:25.284Z,-0.61
2018-02-22T08:49:25.171Z,-0.55
2018-02-22T08:51:18.019Z,-0.39
2018-02-22T08:52:17.918Z,-0.39
2018-02-22T08:54:10.796Z,-0.39
2018-02-22T08:55:10.682Z,-0.35
2018-02-22T08:57:03.541Z,-0.27
2018-02-22T08:58:03.439Z,-0.31
2018-02-22T08:59:56.387Z,-0.35
2018-02-22T09:00:56.269Z,-0.31
2018-02-22T09:02:49.223Z,-0.40
2018-02-22T09:03:49.139Z,-0.34
2018-02-22T09:05:41.993Z,-0.34
2018-02-22T09:06:41.872Z,-0.27
2018-02-22T09:08:34.730Z,-0.35
2018-02-22T09:09:34.636Z,-0.39
2018-02-22T09:11:27.678Z,-0.25
2018-02-22T09:12:27.369Z,-0.22
2018-02-22T09:14:20.244Z,-0.24
2018-02-22T09:15:20.127Z,-0.22
2018-02-22T09:17:13.024Z,-0.22
2018-02-22T09:18:12.876Z,-0.16
2018-02-22T09:20:05.754Z,-0.24
2018-02-22T09:21:05.621Z,-0.40
2018-02-22T09:22:58.508Z,-0.45
2018-02-22T09:23:58.376Z,-0.45
2018-02-22T09:25:51.429Z,-0.52
2018-02-22T09:26:51.324Z,-0.58
2018-02-22T09:28:44.208Z,-0.47
2018-02-22T09:29:44.075Z,-0.43
2018-02-22T09:31:36.941Z,-0.34
2018-02-22T09:32:36.838Z,-0.24
2018-02-22T09:34:29.686Z,-0.21
2018-02-22T09:35:29.590Z,-0.10
2018-02-22T09:37:22.438Z,-0.17
2018-02-22T09:38:22.342Z,-0.29
2018-02-22T09:40:15.224Z,-0.38
2018-02-22T09:41:15.069Z,-0.34
2018-02-22T09:43:07.931Z,-0.25
2018-02-22T09:44:07.826Z,-0.35
2018-02-22T09:46:00.689Z,-0.34
2018-02-22T09:47:00.571Z,-0.39
2018-02-22T09:48:53.458Z,-0.63
2018-02-22T09:49:53.360Z,-0.66
2018-02-22T09:51:46.189Z,-0.61
2018-02-22T09:52:46.074Z,-0.64
2018-02-22T09:54:38.926Z,-0.60
2018-02-22T09:55:38.833Z,-0.47
2018-02-22T09:57:31.592Z,-0.58
2018-02-22T09:58:31.494Z,-0.63
2018-02-22T10:00:24.232Z,-0.58
2018-02-22T10:01:24.130Z,-0.60
2018-02-22T10:03:16.894Z,-0.52
2018-02-22T10:04:16.779Z,-0.47
2018-02-22T10:06:09.527Z,-0.58
2018-02-22T10:07:09.437Z,-0.55
2018-02-22T10:09:02.197Z,-0.60
2018-02-22T10:10:02.078Z,-0.58
2018-02-22T10:11:54.832Z,-0.49
2018-02-22T10:12:54.722Z,-0.46
2018-02-22T10:14:47.488Z,-0.27
2018-02-22T10:15:47.362Z,-0.21
2018-02-22T10:17:40.111Z,-0.16
2018-02-22T10:18:40.018Z,-0.07
2018-02-22T10:20:32.776Z,0.18
2018-02-22T10:21:32.663Z,0.25
2018-02-22T10:23:25.410Z,0.32
2018-02-22T10:24:25.299Z,0.41
2018-02-22T10:26:18.584Z,0.50
2018-02-22T10:27:18.460Z,0.56
2018-02-22T10:29:11.214Z,0.44
2018-02-22T10:30:11.111Z,0.35
2018-02-22T10:32:03.878Z,0.27
2018-02-22T10:33:03.764Z,0.25
2018-02-22T10:34:56.531Z,0.20
2018-02-22T10:35:56.425Z,0.20
2018-02-22T10:37:49.191Z,0.18
2018-02-22T10:38:49.046Z,0.33
2018-02-22T10:40:41.816Z,0.47
2018-02-22T10:41:41.711Z,0.56
2018-02-22T10:43:34.743Z,0.55
2018-02-22T10:44:34.335Z,0.45
2018-02-22T10:46:27.091Z,0.33
2018-02-22T10:47:26.988Z,0.27
2018-02-22T10:49:19.859Z,0.51
2018-02-22T10:50:19.634Z,0.62
2018-02-22T10:52:12.392Z,0.74
2018-02-22T10:53:12.274Z,0.73
2018-02-22T10:55:05.053Z,0.99
2018-02-22T10:56:04.950Z,1.03
2018-02-22T10:57:57.686Z,1.08
2018-02-22T10:58:57.581Z,1.18
2018-02-22T11:00:50.361Z,1.35
2018-02-22T11:01:50.236Z,1.44
2018-02-22T11:03:42.980Z,1.63
2018-02-22T11:04:42.870Z,1.59
2018-02-22T11:06:35.640Z,1.81
2018-02-22T11:07:35.550Z,1.95
2018-02-22T11:09:28.291Z,2.01
2018-02-22T11:10:28.191Z,2.03
2018-02-22T11:12:21.029Z,2.06
2018-02-22T11:13:20.811Z,2.01
2018-02-22T11:15:14.632Z,2.11
2018-02-22T11:16:14.500Z,2.03
2018-02-22T11:18:07.263Z,1.92
2018-02-22T11:19:07.135Z,1.91
2018-02-22T11:20:59.886Z,2.01
2018-02-22T11:21:59.788Z,1.97
2018-02-22T11:23:52.557Z,2.04
2018-02-22T11:24:52.422Z,1.92
2018-02-22T11:26:45.199Z,1.85
2018-02-22T11:27:45.068Z,1.87
2018-02-22T11:29:37.831Z,1.49
2018-02-22T11:30:37.729Z,1.66
2018-02-22T11:32:30.472Z,1.62
2018-02-22T11:33:30.369Z,1.57
2018-02-22T11:35:23.156Z,1.59
2018-02-22T11:36:23.011Z,1.69
2018-02-22T11:38:15.770Z,1.80
2018-02-22T11:39:15.658Z,1.69
2018-02-22T11:41:08.427Z,1.31
2018-02-22T11:42:08.309Z,1.13
2018-02-22T11:44:01.089Z,0.99
2018-02-22T11:45:00.964Z,0.99
2018-02-22T11:46:53.725Z,0.96
2018-02-22T11:47:53.606Z,1.08
2018-02-22T11:49:46.355Z,1.20
2018-02-22T11:50:46.250Z,1.20
2018-02-22T11:52:39.043Z,1.30
2018-02-22T11:53:38.904Z,1.34
2018-02-22T11:55:31.645Z,1.27
2018-02-22T11:56:31.540Z,1.35
2018-02-22T11:58:24.324Z,1.41
2018-02-22T11:59:24.197Z,1.46
2018-02-22T12:01:16.952Z,1.71
2018-02-22T12:02:16.848Z,1.71
2018-02-22T12:04:09.597Z,1.82
2018-02-22T12:05:09.483Z,2.00
2018-02-22T12:07:02.261Z,2.10
2018-02-22T12:08:02.133Z,2.10
2018-02-22T12:09:54.928Z,2.39
2018-02-22T12:10:54.781Z,2.55
2018-02-22T12:12:47.535Z,2.69
2018-02-22T12:13:47.428Z,2.55
2018-02-22T12:15:40.228Z,2.45
2018-02-22T12:16:40.078Z,2.10
2018-02-22T12:18:32.829Z,2.14
2018-02-22T12:19:32.790Z,2.10
2018-02-22T12:21:25.505Z,2.07
2018-02-22T12:22:25.371Z,2.28
2018-02-22T12:24:18.119Z,2.30
2018-02-22T12:25:18.032Z,2.06
2018-02-22T12:27:10.802Z,2.07
2018-02-22T12:28:10.665Z,1.89
2018-02-22T12:30:03.421Z,1.95
2018-02-22T12:31:03.333Z,2.04
2018-02-22T12:32:56.603Z,2.37
2018-02-22T12:33:56.469Z,2.61
2018-02-22T12:35:49.210Z,2.93
2018-02-22T12:36:49.126Z,2.91
2018-02-22T12:38:41.875Z,3.04
2018-02-22T12:39:41.760Z,3.04
2018-02-22T12:41:34.539Z,3.18
2018-02-22T12:42:34.414Z,3.12
2018-02-22T12:44:27.189Z,3.08
2018-02-22T12:45:27.059Z,3.18
2018-02-22T12:47:19.803Z,3.51
2018-02-22T12:48:19.708Z,3.37
2018-02-22T12:50:12.464Z,3.44
2018-02-22T12:51:12.345Z,3.33
2018-02-22T12:53:05.610Z,3.14
2018-02-22T12:54:05.519Z,2.96
2018-02-22T12:55:58.268Z,2.73
2018-02-22T12:56:58.155Z,2.84
2018-02-22T12:58:50.922Z,2.71
2018-02-22T12:59:50.805Z,2.63
2018-02-22T13:01:43.850Z,2.81
2018-02-22T13:02:43.463Z,2.79
2018-02-22T13:04:36.207Z,2.61
2018-02-22T13:05:36.132Z,2.60
2018-02-22T13:07:28.890Z,2.81
2018-02-22T13:08:28.753Z,2.75
2018-02-22T13:10:21.591Z,2.73
2018-02-22T13:11:21.543Z,2.61
2018-02-22T13:13:14.257Z,2.84
2018-02-22T13:14:14.142Z,2.91
2018-02-22T13:16:07.036Z,2.68
2018-02-22T13:17:06.795Z,2.63
2018-02-22T13:18:59.571Z,2.39
2018-02-22T13:19:59.451Z,2.45
2018-02-22T13:21:52.282Z,2.73
2018-02-22T13:22:52.091Z,2.90
2018-02-22T13:24:45.447Z,3.18
2018-02-22T13:25:45.246Z,3.22
2018-02-22T13:27:37.986Z,3.45
2018-02-22T13:28:37.887Z,3.35
2018-02-22T13:30:32.180Z,3.05
2018-02-22T13:31:32.081Z,3.14
2018-02-22T13:33:24.822Z,3.41
2018-02-22T13:34:24.727Z,3.51
2018-02-22T13:36:17.487Z,3.26
2018-02-22T13:37:17.380Z,3.22
2018-02-22T13:39:10.119Z,2.99
2018-02-22T13:40:10.013Z,2.82
2018-02-22T13:42:02.789Z,2.66
2018-02-22T13:43:02.669Z,2.57
2018-02-22T13:44:55.421Z,2.43
2018-02-22T13:45:55.309Z,2.45
2018-02-22T13:47:48.597Z,2.12
2018-02-22T13:48:48.465Z,2.19
2018-02-22T13:50:41.251Z,1.93
2018-02-22T13:51:41.121Z,1.97
2018-02-22T13:53:33.894Z,1.89
2018-02-22T13:54:33.766Z,1.75
2018-02-22T13:56:26.661Z,1.71
2018-02-22T13:57:26.409Z,1.60
2018-02-22T13:59:19.171Z,1.45
2018-02-22T14:00:19.060Z,1.49
2018-02-22T14:02:11.815Z,1.62
2018-02-22T14:03:11.702Z,1.71
2018-02-22T14:05:04.569Z,1.85
2018-02-22T14:06:04.445Z,1.82
2018-02-22T14:07:57.208Z,1.97
2018-02-22T14:08:57.095Z,2.07
2018-02-22T14:10:49.866Z,2.36
2018-02-22T14:11:49.794Z,2.54
2018-02-22T14:13:42.539Z,2.78
2018-02-22T14:14:42.426Z,3.00
2018-02-22T14:16:35.667Z,3.23
2018-02-22T14:17:35.552Z,3.33
2018-02-22T14:19:28.345Z,3.37
2018-02-22T14:20:28.241Z,3.44
2018-02-22T14:22:20.990Z,3.49
2018-02-22T14:23:20.855Z,3.62
2018-02-22T14:25:13.606Z,3.85
2018-02-22T14:26:13.500Z,3.88
2018-02-22T14:28:06.271Z,4.03
2018-02-22T14:29:06.160Z,4.12
2018-02-22T14:30:58.898Z,4.26
2018-02-22T14:31:58.800Z,4.31
2018-02-22T14:33:51.549Z,4.48
2018-02-22T14:34:51.450Z,4.57
2018-02-22T14:36:44.206Z,3.80
2018-02-22T14:37:44.080Z,3.56
2018-02-22T14:39:36.862Z,2.75
2018-02-22T14:40:36.737Z,2.99
2018-02-22T14:42:29.479Z,2.43
2018-02-22T14:43:29.378Z,2.12
2018-02-22T14:45:22.181Z,2.69
2018-02-22T14:46:22.032Z,2.68
2018-02-22T14:48:14.780Z,2.06
2018-02-22T14:49:14.691Z,1.85
2018-02-22T14:51:07.454Z,1.66
2018-02-22T14:52:07.327Z,1.59
2018-02-22T14:54:00.077Z,1.49
2018-02-22T14:54:59.979Z,1.46
2018-02-22T14:56:52.781Z,1.48
2018-02-22T14:57:52.631Z,1.38
2018-02-22T14:59:45.368Z,1.42
2018-02-22T15:00:45.263Z,1.35
2018-02-22T15:02:38.048Z,1.39
2018-02-22T15:03:37.903Z,1.42
2018-02-22T15:05:30.676Z,1.39
2018-02-22T15:06:30.561Z,1.42
2018-02-22T15:08:23.948Z,2.58
2018-02-22T15:09:23.832Z,3.26
2018-02-22T15:11:16.592Z,3.52
2018-02-22T15:12:16.479Z,3.84
2018-02-22T15:14:09.246Z,3.62
2018-02-22T15:15:09.111Z,3.88
2018-02-22T15:17:01.939Z,3.81
2018-02-22T15:18:01.761Z,3.69
2018-02-22T15:19:54.548Z,2.57
2018-02-22T15:20:54.435Z,2.94
2018-02-22T15:22:47.148Z,2.54
2018-02-22T15:23:47.069Z,2.22
2018-02-22T15:25:39.840Z,3.42
2018-02-22T15:26:39.698Z,3.87
2018-02-22T15:28:32.442Z,4.48
2018-02-22T15:29:32.352Z,4.86
2018-02-22T15:31:25.116Z,5.01
2018-02-22T15:32:24.995Z,5.04
2018-02-22T15:34:17.738Z,5.07
2018-02-22T15:35:17.640Z,5.00
2018-02-22T15:37:10.433Z,4.67
2018-02-22T15:38:10.293Z,4.66
2018-02-22T15:40:03.056Z,4.43
2018-02-22T15:41:02.938Z,4.43
2018-02-22T15:42:55.722Z,4.02
2018-02-22T15:43:55.597Z,3.94
2018-02-22T15:45:48.339Z,3.60
2018-02-22T15:46:48.281Z,3.55
2018-02-22T15:48:40.989Z,3.26
2018-02-22T15:49:40.889Z,3.02
2018-02-22T15:51:33.632Z,2.71
2018-02-22T15:52:33.558Z,2.68
2018-02-22T15:54:26.312Z,2.43
2018-02-22T15:55:26.181Z,2.32
2018-02-22T15:57:18.934Z,2.18
2018-02-22T15:58:18.834Z,2.00
2018-02-22T16:00:11.583Z,2.01
2018-02-22T16:01:11.480Z,2.06
2018-02-22T16:03:04.318Z,2.14
2018-02-22T16:04:04.212Z,2.07
2018-02-22T16:05:56.988Z,2.03
2018-02-22T16:06:56.862Z,2.10
2018-02-22T16:08:49.617Z,2.07
2018-02-22T16:09:49.521Z,1.93
2018-02-22T16:11:42.290Z,1.84
2018-02-22T16:12:42.184Z,1.73
2018-02-22T16:14:34.916Z,1.59
2018-02-22T16:15:34.814Z,1.49
2018-02-22T16:17:27.575Z,1.49
2018-02-22T16:18:27.457Z,1.55
2018-02-22T16:20:20.200Z,1.44
2018-02-22T16:21:20.155Z,1.49
2018-02-22T16:23:12.853Z,1.48
2018-02-22T16:24:12.742Z,1.46
2018-02-22T16:26:05.505Z,1.42
2018-02-22T16:27:05.390Z,1.31
2018-02-22T16:28:58.165Z,1.30
2018-02-22T16:29:58.036Z,1.26
2018-02-22T16:31:50.802Z,1.21
2018-02-22T16:32:50.750Z,1.21
2018-02-22T16:34:43.461Z,1.31
2018-02-22T16:35:43.339Z,1.20
2018-02-22T16:37:36.278Z,1.13
2018-02-22T16:38:36.189Z,1.13
2018-02-22T16:40:29.098Z,1.13
2018-02-22T16:41:28.937Z,1.16
2018-02-22T16:43:21.799Z,1.13
2018-02-22T16:44:22.683Z,1.09
2018-02-22T16:46:14.568Z,1.13
2018-02-22T16:47:14.426Z,1.16
2018-02-22T16:49:07.287Z,1.03
2018-02-22T16:50:07.179Z,1.10
2018-02-22T16:52:00.266Z,1.10
2018-02-22T16:52:59.949Z,1.03
2018-02-22T16:54:52.783Z,1.05
2018-02-22T16:55:52.674Z,1.03
2018-02-22T16:57:45.542Z,1.02
2018-02-22T16:58:45.433Z,1.03
2018-02-22T17:00:39.220Z,1.02
2018-02-22T17:01:38.172Z,1.00
2018-02-22T17:03:31.088Z,1.06
2018-02-22T17:04:30.930Z,0.98
2018-02-22T17:06:23.793Z,0.96
2018-02-22T17:07:23.681Z,1.03
2018-02-22T17:09:16.560Z,0.92
2018-02-22T17:10:16.428Z,0.98
2018-02-22T17:12:09.278Z,0.82
2018-02-22T17:13:09.222Z,0.80
2018-02-22T17:15:02.579Z,0.84
2018-02-22T17:16:02.453Z,0.82
2018-02-22T17:17:55.235Z,0.88
2018-02-22T17:18:55.094Z,0.82
2018-02-22T17:20:47.882Z,0.87
2018-02-22T17:21:47.742Z,0.80
2018-02-22T17:23:41.572Z,0.84
2018-02-22T17:24:40.410Z,0.81
2018-02-22T17:26:34.701Z,0.81
2018-02-22T17:27:34.616Z,0.78
2018-02-22T17:29:27.321Z,0.85
2018-02-22T17:30:27.210Z,0.80
2018-02-22T17:32:20.409Z,0.78
2018-02-22T17:33:19.963Z,0.85
2018-02-22T17:35:14.315Z,0.84
2018-02-22T17:36:13.734Z,0.76
2018-02-22T17:38:06.629Z,0.87
2018-02-22T17:39:07.098Z,0.78
2018-02-22T17:40:59.785Z,0.85
2018-02-22T17:41:59.353Z,0.78
2018-02-22T17:43:52.242Z,0.82
2018-02-22T17:44:52.160Z,0.74
2018-02-22T17:46:44.841Z,0.80
2018-02-22T17:47:44.738Z,0.81
2018-02-22T17:49:37.608Z,0.73
2018-02-22T17:50:37.488Z,0.76
2018-02-22T17:52:30.428Z,0.72
2018-02-22T17:53:30.250Z,0.74
2018-02-22T17:55:23.116Z,0.78
2018-02-22T17:56:22.975Z,0.84
2018-02-22T17:58:15.834Z,0.72
2018-02-22T17:59:15.733Z,0.78
2018-02-22T18:01:09.233Z,0.76
2018-02-22T18:02:09.099Z,0.72
2018-02-22T18:04:01.954Z,0.73
2018-02-22T18:05:01.838Z,0.73
2018-02-22T18:06:54.718Z,0.64
2018-02-22T18:07:54.598Z,0.70
2018-02-22T18:09:47.450Z,0.70
2018-02-22T18:10:47.335Z,0.60
2018-02-22T18:12:40.134Z,0.55
2018-02-22T18:13:39.995Z,0.63
2018-02-22T18:15:32.764Z,0.62
2018-02-22T18:16:32.639Z,0.66
2018-02-22T18:18:25.419Z,0.62
2018-02-22T18:19:25.288Z,0.55
2018-02-22T18:21:18.052Z,0.55
2018-02-22T18:22:17.934Z,0.56
2018-02-22T18:24:10.750Z,0.53
2018-02-22T18:25:10.591Z,0.50
2018-02-22T18:27:03.568Z,0.48
2018-02-22T18:28:03.248Z,0.44
2018-02-22T18:29:55.993Z,0.40
2018-02-22T18:30:55.870Z,0.33
2018-02-22T18:32:48.638Z,0.30
2018-02-22T18:33:48.549Z,0.35
2018-02-22T18:35:41.293Z,0.23
2018-02-22T18:36:41.168Z,0.27
2018-02-22T18:38:34.068Z,0.27
2018-02-22T18:39:33.861Z,0.15
2018-02-22T18:41:26.595Z,0.22
2018-02-22T18:42:26.462Z,0.18
2018-02-22T18:44:19.789Z,0.18
2018-02-22T18:45:19.637Z,0.23
2018-02-22T18:47:13.009Z,0.20
2018-02-22T18:48:12.273Z,0.22
2018-02-22T18:50:05.046Z,0.09